Terminal Aerodrome Forecast
Issued by NWS

Home | Current Version | Previous Version | Text Only | Print | Product List | Glossary On
Versions: 1 2 3 4 5 6 7 8 9 10 11 12 13
214
FTUS43 KLSX 071132
TAFUIN
TAF
KUIN 071132Z 0712/0812 23013KT P6SM BKN200
     FM071700 27016KT P6SM BKN120
     FM072000 29018G28KT P6SM SCT050 BKN120
     FM080300 30015KT P6SM -SN SCT025 OVC040=

USA.gov is the U.S. government's official web portal to all federal, state and local government web resources and services.